createdAt,value
2018-09-29T02:13:27.874Z,10.50
2018-09-29T02:27:14.841Z,10.30
2018-09-29T02:29:55.414Z,10.20
2018-09-29T02:56:42.238Z,9.80
2018-09-29T03:11:19.843Z,9.80
2018-09-29T03:14:16.703Z,9.80
2018-09-29T03:19:49.636Z,9.70
2018-09-29T03:22:30.008Z,9.70
2018-09-29T03:30:42.988Z,9.60
2018-09-29T03:33:12.241Z,9.60
2018-09-29T03:35:41.819Z,9.60
2018-09-29T03:38:12.198Z,9.60
2018-09-29T03:40:42.064Z,9.50
2018-09-29T03:43:11.517Z,9.50
2018-09-29T03:45:40.745Z,9.50
2018-09-29T03:48:10.643Z,9.50
2018-09-29T03:50:39.296Z,9.50
2018-09-29T03:53:09.266Z,9.40
2018-09-29T03:55:39.126Z,9.40
2018-09-29T03:58:09.151Z,9.40
2018-09-29T04:00:39.390Z,9.40
2018-09-29T04:03:18.554Z,9.40
2018-09-29T04:05:48.327Z,9.40
2018-09-29T04:08:17.564Z,9.40
2018-09-29T04:10:48.175Z,9.40
2018-09-29T04:13:18.113Z,9.40
2018-09-29T04:15:50.114Z,9.40
2018-09-29T04:18:19.784Z,9.40
2018-09-29T04:20:49.474Z,9.50
2018-09-29T04:23:18.672Z,9.40
2018-09-29T04:25:50.873Z,9.50
2018-09-29T04:28:25.658Z,9.50
2018-09-29T04:30:56.188Z,9.40
2018-09-29T04:33:38.185Z,9.50
2018-09-29T04:36:12.138Z,9.50
2018-09-29T04:41:15.376Z,9.50
2018-09-29T04:44:03.661Z,9.50
2018-09-29T04:46:33.821Z,9.50
2018-09-29T04:49:04.808Z,9.50
2018-09-29T04:54:09.243Z,9.50
2018-09-29T04:56:38.176Z,9.50
2018-09-29T04:59:14.071Z,9.50
2018-09-29T05:01:48.338Z,9.50
2018-09-29T05:04:22.015Z,9.50
2018-09-29T05:06:52.873Z,9.50
2018-09-29T05:09:22.140Z,9.50
2018-09-29T05:11:52.008Z,9.50
2018-09-29T05:14:21.752Z,9.50
2018-09-29T05:16:52.733Z,9.50
2018-09-29T05:19:23.089Z,9.50
2018-09-29T05:21:58.726Z,9.40
2018-09-29T05:24:30.040Z,9.40
2018-09-29T05:27:00.856Z,9.50
2018-09-29T05:29:35.687Z,9.50
2018-09-29T05:32:09.491Z,9.50
2018-09-29T05:34:41.102Z,9.50
2018-09-29T05:37:11.636Z,9.50
2018-09-29T05:39:41.247Z,9.50
2018-09-29T05:42:15.754Z,9.50
2018-09-29T05:44:48.400Z,9.50
2018-09-29T05:47:22.764Z,9.50
2018-09-29T05:49:52.676Z,9.60
2018-09-29T05:52:22.912Z,9.60
2018-09-29T05:54:52.730Z,9.70
2018-09-29T05:57:22.859Z,9.80
2018-09-29T05:59:52.610Z,9.80
2018-09-29T06:02:21.651Z,9.80
2018-09-29T06:04:51.257Z,9.90
2018-09-29T06:07:25.048Z,9.90
2018-09-29T06:09:54.717Z,10.00
2018-09-29T06:12:25.399Z,10.00
2018-09-29T06:14:53.716Z,10.10
2018-09-29T06:17:23.678Z,10.10
2018-09-29T06:19:56.058Z,10.10
2018-09-29T06:22:35.469Z,10.10
2018-09-29T06:25:09.183Z,10.10
2018-09-29T06:27:38.544Z,10.10
2018-09-29T06:30:10.263Z,10.10
2018-09-29T06:32:40.449Z,10.10
2018-09-29T06:35:15.434Z,10.10
2018-09-29T06:40:25.269Z,10.10
2018-09-29T06:43:05.381Z,10.20
2018-09-29T06:45:42.860Z,10.30
2018-09-29T06:48:14.382Z,10.40
2018-09-29T06:50:45.432Z,10.50
2018-09-29T06:53:22.920Z,10.60
2018-09-29T06:55:52.581Z,10.60
2018-09-29T06:58:23.792Z,10.70
2018-09-29T07:00:54.460Z,10.70
2018-09-29T07:03:24.558Z,10.80
2018-09-29T07:05:54.888Z,10.80
2018-09-29T07:08:30.456Z,10.80
2018-09-29T07:11:00.917Z,10.90
2018-09-29T07:13:41.927Z,10.90
2018-09-29T07:16:11.295Z,10.90
2018-09-29T07:18:41.187Z,10.90
2018-09-29T07:24:08.452Z,10.90
2018-09-29T07:26:38.601Z,10.90
2018-09-29T07:31:51.389Z,11.00
2018-09-29T07:34:34.797Z,11.00
2018-09-29T07:39:48.415Z,11.40
2018-09-29T07:42:29.546Z,11.50
2018-09-29T07:45:00.933Z,11.70
2018-09-29T07:47:34.250Z,11.80
2018-09-29T07:52:59.819Z,12.10
2018-09-29T07:55:32.742Z,12.20
2018-09-29T08:00:45.230Z,12.20
2018-09-29T08:03:25.469Z,12.20
2018-09-29T08:05:57.429Z,12.10
2018-09-29T08:08:28.963Z,12.10
2018-09-29T08:10:58.704Z,12.10
2018-09-29T08:13:46.815Z,12.10
2018-09-29T08:16:21.345Z,12.20
2018-09-29T08:18:55.520Z,12.40
2018-09-29T08:21:25.224Z,12.40
2018-09-29T08:26:54.835Z,12.60
2018-09-29T08:29:25.297Z,12.60
2018-09-29T08:32:05.564Z,12.60
2018-09-29T08:34:40.125Z,12.60
2018-09-29T08:37:14.387Z,12.60
2018-09-29T08:39:44.419Z,12.70
2018-09-29T08:42:19.036Z,12.90
2018-09-29T08:44:53.008Z,13.00
2018-09-29T08:47:24.316Z,13.10
2018-09-29T08:49:56.559Z,13.30
2018-09-29T08:52:47.478Z,13.40
2018-09-29T08:55:19.083Z,13.60
2018-09-29T08:57:59.144Z,13.70
2018-09-29T09:00:33.286Z,13.70
2018-09-29T09:03:20.756Z,13.80
2018-09-29T09:05:59.110Z,13.80
2018-09-29T09:08:33.865Z,13.60
2018-09-29T09:22:44.439Z,13.60
2018-09-29T09:28:12.794Z,13.50
2018-09-29T09:33:33.783Z,13.60
2018-09-29T09:36:04.023Z,13.70
2018-09-29T09:38:38.635Z,13.80
2018-09-29T09:41:08.810Z,13.80
2018-09-29T09:43:51.993Z,13.80
2018-09-29T09:46:23.836Z,13.90
2018-09-29T09:48:57.067Z,13.90
2018-09-29T09:51:26.861Z,13.90
2018-09-29T09:53:57.197Z,13.80
2018-09-29T09:56:41.835Z,13.70
2018-09-29T10:01:56.940Z,13.70
2018-09-29T10:07:07.399Z,14.00
2018-09-29T10:12:30.527Z,14.10
2018-09-29T10:20:12.175Z,14.20
2018-09-29T10:22:56.643Z,14.30
2018-09-29T10:25:31.842Z,14.30
2018-09-29T10:28:00.578Z,14.40
2018-09-29T10:30:36.330Z,14.50
2018-09-29T10:33:07.334Z,14.60
2018-09-29T10:35:39.009Z,14.80
2018-09-29T10:38:10.780Z,14.80
2018-09-29T10:43:25.736Z,15.10
2018-09-29T10:45:56.768Z,15.20
2018-09-29T10:48:25.098Z,15.30
2018-09-29T10:50:53.442Z,15.40
2018-09-29T10:53:22.639Z,15.40
2018-09-29T10:55:59.099Z,15.30
2018-09-29T10:58:35.820Z,15.20
2018-09-29T11:01:10.884Z,15.30
2018-09-29T11:03:44.596Z,15.20
2018-09-29T11:06:21.652Z,15.10
2018-09-29T11:08:51.360Z,15.00
2018-09-29T11:11:36.521Z,15.00
2018-09-29T11:16:48.094Z,15.10
2018-09-29T11:19:25.942Z,15.30
2018-09-29T11:22:00.901Z,15.40
2018-09-29T11:24:39.428Z,15.40
2018-09-29T11:29:55.308Z,15.40
2018-09-29T11:32:40.553Z,15.30
2018-09-29T11:37:55.423Z,15.30
2018-09-29T11:53:06.385Z,15.70
2018-09-29T11:55:45.431Z,15.70
2018-09-29T11:58:35.613Z,15.70
2018-09-29T12:01:06.344Z,15.70
2018-09-29T12:03:41.202Z,15.60
2018-09-29T12:06:11.763Z,15.60
2018-09-29T12:08:47.119Z,15.60
2018-09-29T12:11:23.800Z,15.70
2018-09-29T12:24:15.427Z,15.30
2018-09-29T12:26:52.034Z,15.30
2018-09-29T12:32:18.322Z,15.50
2018-09-29T12:35:01.917Z,15.50
2018-09-29T12:37:45.912Z,15.40
2018-09-29T12:40:18.394Z,15.40
2018-09-29T12:51:04.721Z,15.00
2018-09-29T12:53:39.619Z,15.00
2018-09-29T12:56:17.622Z,14.90
2018-09-29T12:58:52.730Z,14.90
2018-09-29T13:15:32.344Z,14.90
2018-09-29T13:18:11.795Z,15.10
2018-09-29T13:37:47.094Z,15.20
2018-09-29T13:40:26.499Z,15.20
2018-09-29T13:45:49.074Z,15.10
2018-09-29T13:48:26.160Z,15.10
2018-09-29T13:53:51.177Z,15.10
2018-09-29T14:01:50.331Z,15.20
2018-09-29T14:07:13.137Z,15.10
2018-09-29T14:09:57.346Z,15.10
2018-09-29T14:15:33.521Z,15.10
2018-09-29T14:18:17.841Z,15.20
2018-09-29T14:26:35.084Z,15.20
2018-09-29T14:29:17.315Z,15.10
2018-09-29T14:31:58.763Z,15.10
2018-09-29T14:39:48.818Z,15.10
2018-09-29T14:42:22.069Z,15.10
2018-09-29T14:44:59.236Z,15.20
2018-09-29T14:47:32.376Z,15.10
2018-09-29T14:50:11.170Z,15.10
2018-09-29T14:52:55.833Z,15.10
2018-09-29T14:55:35.143Z,15.00
2018-09-29T15:00:43.983Z,15.00
2018-09-29T15:08:44.364Z,14.80
2018-09-29T15:11:34.151Z,14.70
2018-09-29T15:14:10.497Z,14.70
2018-09-29T15:16:42.058Z,14.70
2018-09-29T15:19:11.671Z,14.70
2018-09-29T15:21:44.173Z,14.70
2018-09-29T15:24:18.722Z,14.60
2018-09-29T15:26:50.235Z,14.60
2018-09-29T15:29:20.651Z,14.60
2018-09-29T15:31:56.595Z,14.50
2018-09-29T15:34:35.787Z,14.50
2018-09-29T15:37:14.125Z,14.60
2018-09-29T15:39:45.134Z,14.60
2018-09-29T15:42:15.036Z,14.60
2018-09-29T15:44:45.088Z,14.50
2018-09-29T15:47:16.007Z,14.40
2018-09-29T15:49:48.071Z,14.30
2018-09-29T15:52:20.443Z,14.20
2018-09-29T15:54:53.380Z,14.20
2018-09-29T15:57:26.081Z,14.20
2018-09-29T15:59:59.248Z,14.20
2018-09-29T16:02:38.290Z,14.20
2018-09-29T16:05:09.632Z,14.10
2018-09-29T16:07:39.364Z,14.10
2018-09-29T16:10:09.184Z,14.10
2018-09-29T16:15:18.087Z,14.00
2018-09-29T16:17:57.003Z,13.90
2018-09-29T16:20:39.735Z,13.90
2018-09-29T16:23:31.340Z,13.80
2018-09-29T16:26:15.820Z,13.70
2018-09-29T16:28:50.712Z,13.70
2018-09-29T16:31:32.846Z,13.70
2018-09-29T16:41:17.101Z,13.80
2018-09-29T16:47:19.136Z,13.80
2018-09-29T16:49:59.336Z,13.80
2018-09-29T16:55:57.697Z,13.70
2018-09-29T17:04:30.663Z,13.20
2018-09-29T17:42:32.198Z,12.50
2018-09-29T17:48:08.899Z,12.60
2018-09-29T17:50:59.303Z,12.60
2018-09-29T17:56:41.189Z,12.70
2018-09-29T17:59:29.074Z,12.70
2018-09-29T18:08:04.435Z,12.90
2018-09-29T18:19:58.437Z,12.60
2018-09-29T18:31:11.292Z,12.50
2018-09-29T18:38:38.160Z,12.40
2018-09-29T19:28:27.086Z,12.20
2018-09-29T19:41:48.003Z,12.30
2018-09-29T19:56:01.116Z,12.70
2018-09-29T20:10:04.647Z,12.80
2018-09-29T20:12:50.642Z,12.70
2018-09-29T21:45:16.161Z,12.40
2018-09-29T22:26:13.425Z,12.20
2018-09-29T22:28:52.042Z,12.20
2018-09-29T22:37:06.490Z,12.50
2018-09-29T22:42:23.202Z,12.60
2018-09-29T22:50:33.486Z,12.70
2018-09-29T22:53:08.126Z,12.80
2018-09-29T22:58:38.766Z,12.80
2018-09-29T23:01:25.388Z,12.80
2018-09-29T23:04:01.639Z,12.80
2018-09-29T23:06:46.815Z,12.80
2018-09-29T23:12:19.050Z,12.90
2018-09-29T23:15:00.510Z,12.90
2018-09-29T23:17:49.445Z,12.90
2018-09-29T23:20:33.489Z,12.90
2018-09-29T23:36:29.462Z,12.90
2018-09-29T23:39:20.879Z,12.90
2018-09-29T23:45:59.934Z,12.90
2018-09-29T23:54:13.304Z,12.80
